sensor_id;sensor_type;location;lat;lon;timestamp;temperature;humidity
33139;DHT22;19501;50.948;5.316;2022-09-13T00:00:56;19.10;99.90
33139;DHT22;19501;50.948;5.316;2022-09-13T00:03:22;19.10;99.90
33139;DHT22;19501;50.948;5.316;2022-09-13T00:05:48;19.10;99.90
33139;DHT22;19501;50.948;5.316;2022-09-13T00:08:14;19.10;99.90
33139;DHT22;19501;50.948;5.316;2022-09-13T00:10:41;19.00;99.90
33139;DHT22;19501;50.948;5.316;2022-09-13T00:13:08;19.10;99.90
33139;DHT22;19501;50.948;5.316;2022-09-13T00:15:35;19.10;99.90
33139;DHT22;19501;50.948;5.316;2022-09-13T00:18:01;18.80;99.90
33139;DHT22;19501;50.948;5.316;2022-09-13T00:20:28;18.60;99.90
33139;DHT22;19501;50.948;5.316;2022-09-13T00:22:54;18.60;99.90
33139;DHT22;19501;50.948;5.316;2022-09-13T00:25:20;18.70;99.90
33139;DHT22;19501;50.948;5.316;2022-09-13T00:27:46;18.60;99.90
33139;DHT22;19501;50.948;5.316;2022-09-13T00:30:12;18.50;99.90
33139;DHT22;19501;50.948;5.316;2022-09-13T00:32:38;18.50;99.90
33139;DHT22;19501;50.948;5.316;2022-09-13T00:35:05;18.50;99.90
33139;DHT22;19501;50.948;5.316;2022-09-13T00:37:31;18.50;99.90
33139;DHT22;19501;50.948;5.316;2022-09-13T00:40:00;18.40;99.90
33139;DHT22;19501;50.948;5.316;2022-09-13T00:42:28;18.40;99.90
33139;DHT22;19501;50.948;5.316;2022-09-13T00:47:42;18.30;99.90
33139;DHT22;19501;50.948;5.316;2022-09-13T00:50:17;18.30;99.90
33139;DHT22;19501;50.948;5.316;2022-09-13T00:53:05;18.20;99.90
33139;DHT22;19501;50.948;5.316;2022-09-13T00:56:00;18.30;99.90
33139;DHT22;19501;50.948;5.316;2022-09-13T00:58:38;18.30;99.90
33139;DHT22;19501;50.948;5.316;2022-09-13T01:01:08;18.40;99.90
33139;DHT22;19501;50.948;5.316;2022-09-13T01:03:35;18.40;99.90
33139;DHT22;19501;50.948;5.316;2022-09-13T01:06:07;18.40;99.90
33139;DHT22;19501;50.948;5.316;2022-09-13T01:08:36;18.40;99.90
33139;DHT22;19501;50.948;5.316;2022-09-13T01:11:07;18.40;99.90
33139;DHT22;19501;50.948;5.316;2022-09-13T01:13:37;18.50;99.90
33139;DHT22;19501;50.948;5.316;2022-09-13T01:16:04;18.50;99.90
33139;DHT22;19501;50.948;5.316;2022-09-13T01:18:30;18.50;99.90
33139;DHT22;19501;50.948;5.316;2022-09-13T01:29:38;18.60;99.90
33139;DHT22;19501;50.948;5.316;2022-09-13T01:37:37;18.70;99.90
33139;DHT22;19501;50.948;5.316;2022-09-13T01:40:15;18.50;99.90
33139;DHT22;19501;50.948;5.316;2022-09-13T01:46:03;18.30;99.90
33139;DHT22;19501;50.948;5.316;2022-09-13T01:51:33;18.60;99.90
33139;DHT22;19501;50.948;5.316;2022-09-13T01:54:17;18.50;99.90
33139;DHT22;19501;50.948;5.316;2022-09-13T01:56:53;18.50;99.90
33139;DHT22;19501;50.948;5.316;2022-09-13T02:02:32;18.50;99.90
33139;DHT22;19501;50.948;5.316;2022-09-13T02:05:16;18.60;99.90
33139;DHT22;19501;50.948;5.316;2022-09-13T02:07:52;18.70;99.90
33139;DHT22;19501;50.948;5.316;2022-09-13T02:10:40;18.80;99.90
33139;DHT22;19501;50.948;5.316;2022-09-13T02:13:12;18.90;99.90
33139;DHT22;19501;50.948;5.316;2022-09-13T02:15:59;18.80;99.90
33139;DHT22;19501;50.948;5.316;2022-09-13T02:18:48;18.90;99.90
33139;DHT22;19501;50.948;5.316;2022-09-13T02:21:21;18.80;99.90
33139;DHT22;19501;50.948;5.316;2022-09-13T02:23:50;18.70;99.90
33139;DHT22;19501;50.948;5.316;2022-09-13T02:26:19;18.80;99.90
33139;DHT22;19501;50.948;5.316;2022-09-13T02:28:51;19.00;99.90
33139;DHT22;19501;50.948;5.316;2022-09-13T02:34:21;19.00;99.90
33139;DHT22;19501;50.948;5.316;2022-09-13T02:36:48;18.90;99.90
33139;DHT22;19501;50.948;5.316;2022-09-13T02:39:17;18.80;99.90
33139;DHT22;19501;50.948;5.316;2022-09-13T02:41:51;18.90;99.90
33139;DHT22;19501;50.948;5.316;2022-09-13T02:47:05;18.70;99.90
33139;DHT22;19501;50.948;5.316;2022-09-13T02:55:37;19.00;99.90
33139;DHT22;19501;50.948;5.316;2022-09-13T02:58:38;19.00;99.90
33139;DHT22;19501;50.948;5.316;2022-09-13T03:01:00;18.90;99.90
33139;DHT22;19501;50.948;5.316;2022-09-13T03:03:26;18.60;99.90
33139;DHT22;19501;50.948;5.316;2022-09-13T03:05:52;18.60;99.90
33139;DHT22;19501;50.948;5.316;2022-09-13T03:08:18;18.70;99.90
33139;DHT22;19501;50.948;5.316;2022-09-13T03:20:19;18.90;99.90
33139;DHT22;19501;50.948;5.316;2022-09-13T03:34:19;18.60;99.90
33139;DHT22;19501;50.948;5.316;2022-09-13T03:36:57;18.50;99.90
33139;DHT22;19501;50.948;5.316;2022-09-13T03:39:40;18.30;99.90
33139;DHT22;19501;50.948;5.316;2022-09-13T03:42:36;18.10;99.90
33139;DHT22;19501;50.948;5.316;2022-09-13T03:45:06;18.20;99.90
33139;DHT22;19501;50.948;5.316;2022-09-13T03:47:35;18.30;99.90
33139;DHT22;19501;50.948;5.316;2022-09-13T03:50:06;18.40;99.90
33139;DHT22;19501;50.948;5.316;2022-09-13T03:52:33;18.50;99.90
33139;DHT22;19501;50.948;5.316;2022-09-13T03:55:00;18.60;99.90
33139;DHT22;19501;50.948;5.316;2022-09-13T03:57:27;18.60;99.90
33139;DHT22;19501;50.948;5.316;2022-09-13T03:59:55;18.60;99.90
33139;DHT22;19501;50.948;5.316;2022-09-13T04:02:23;18.50;99.90
33139;DHT22;19501;50.948;5.316;2022-09-13T04:04:49;18.40;99.90
33139;DHT22;19501;50.948;5.316;2022-09-13T04:07:18;18.50;99.90
33139;DHT22;19501;50.948;5.316;2022-09-13T04:09:44;18.60;99.90
33139;DHT22;19501;50.948;5.316;2022-09-13T04:12:11;18.70;99.90
33139;DHT22;19501;50.948;5.316;2022-09-13T04:14:38;18.60;99.90
33139;DHT22;19501;50.948;5.316;2022-09-13T04:17:04;18.60;99.90
33139;DHT22;19501;50.948;5.316;2022-09-13T04:19:31;18.60;99.90
33139;DHT22;19501;50.948;5.316;2022-09-13T04:21:57;18.60;99.90
33139;DHT22;19501;50.948;5.316;2022-09-13T04:24:27;18.60;99.90
33139;DHT22;19501;50.948;5.316;2022-09-13T04:26:53;18.70;99.90
33139;DHT22;19501;50.948;5.316;2022-09-13T04:29:20;18.60;99.90
33139;DHT22;19501;50.948;5.316;2022-09-13T04:31:47;18.50;99.90
33139;DHT22;19501;50.948;5.316;2022-09-13T04:34:16;18.50;99.90
33139;DHT22;19501;50.948;5.316;2022-09-13T04:36:43;18.60;99.90
33139;DHT22;19501;50.948;5.316;2022-09-13T04:39:09;18.60;99.90
33139;DHT22;19501;50.948;5.316;2022-09-13T04:41:35;18.60;99.90
33139;DHT22;19501;50.948;5.316;2022-09-13T04:44:01;18.60;99.90
33139;DHT22;19501;50.948;5.316;2022-09-13T04:46:27;18.60;99.90
33139;DHT22;19501;50.948;5.316;2022-09-13T04:48:53;18.60;99.90
33139;DHT22;19501;50.948;5.316;2022-09-13T04:51:19;18.60;99.90
33139;DHT22;19501;50.948;5.316;2022-09-13T04:53:50;18.60;99.90
33139;DHT22;19501;50.948;5.316;2022-09-13T04:56:16;18.60;99.90
33139;DHT22;19501;50.948;5.316;2022-09-13T04:58:44;18.50;99.90
33139;DHT22;19501;50.948;5.316;2022-09-13T05:01:10;18.50;99.90
33139;DHT22;19501;50.948;5.316;2022-09-13T05:03:37;18.50;99.90
33139;DHT22;19501;50.948;5.316;2022-09-13T05:08:29;18.50;99.90
33139;DHT22;19501;50.948;5.316;2022-09-13T05:10:55;18.30;99.90
33139;DHT22;19501;50.948;5.316;2022-09-13T05:13:25;18.20;99.90
33139;DHT22;19501;50.948;5.316;2022-09-13T05:15:58;18.10;99.90
33139;DHT22;19501;50.948;5.316;2022-09-13T05:18:26;18.10;99.90
33139;DHT22;19501;50.948;5.316;2022-09-13T05:20:55;18.20;99.90
33139;DHT22;19501;50.948;5.316;2022-09-13T05:23:22;18.20;99.90
33139;DHT22;19501;50.948;5.316;2022-09-13T05:26:04;18.20;99.90
33139;DHT22;19501;50.948;5.316;2022-09-13T05:28:33;18.30;99.90
33139;DHT22;19501;50.948;5.316;2022-09-13T05:31:00;18.50;99.90
33139;DHT22;19501;50.948;5.316;2022-09-13T05:33:28;18.50;99.90
33139;DHT22;19501;50.948;5.316;2022-09-13T05:35:54;18.50;99.90
33139;DHT22;19501;50.948;5.316;2022-09-13T05:38:21;18.40;99.90
33139;DHT22;19501;50.948;5.316;2022-09-13T05:40:56;18.40;99.90
33139;DHT22;19501;50.948;5.316;2022-09-13T05:43:24;18.40;99.90
33139;DHT22;19501;50.948;5.316;2022-09-13T05:45:50;18.50;99.90
33139;DHT22;19501;50.948;5.316;2022-09-13T05:48:16;18.60;99.90
33139;DHT22;19501;50.948;5.316;2022-09-13T05:50:42;18.60;99.90
33139;DHT22;19501;50.948;5.316;2022-09-13T05:53:07;18.60;99.90
33139;DHT22;19501;50.948;5.316;2022-09-13T05:55:34;18.40;99.90
33139;DHT22;19501;50.948;5.316;2022-09-13T05:58:02;18.30;99.90
33139;DHT22;19501;50.948;5.316;2022-09-13T06:00:28;18.10;99.90
33139;DHT22;19501;50.948;5.316;2022-09-13T06:02:55;18.20;99.90
33139;DHT22;19501;50.948;5.316;2022-09-13T06:05:20;18.30;99.90
33139;DHT22;19501;50.948;5.316;2022-09-13T06:07:46;18.40;99.90
33139;DHT22;19501;50.948;5.316;2022-09-13T06:10:12;18.40;99.90
33139;DHT22;19501;50.948;5.316;2022-09-13T06:12:39;18.40;99.90
33139;DHT22;19501;50.948;5.316;2022-09-13T06:15:05;18.30;99.90
33139;DHT22;19501;50.948;5.316;2022-09-13T06:17:31;18.40;99.90
33139;DHT22;19501;50.948;5.316;2022-09-13T06:19:56;18.50;99.90
33139;DHT22;19501;50.948;5.316;2022-09-13T06:22:22;18.60;99.90
33139;DHT22;19501;50.948;5.316;2022-09-13T06:24:47;18.60;99.90
33139;DHT22;19501;50.948;5.316;2022-09-13T06:27:14;18.60;99.90
33139;DHT22;19501;50.948;5.316;2022-09-13T06:29:39;18.40;99.90
33139;DHT22;19501;50.948;5.316;2022-09-13T06:32:05;18.60;99.90
33139;DHT22;19501;50.948;5.316;2022-09-13T06:34:31;18.60;99.90
33139;DHT22;19501;50.948;5.316;2022-09-13T06:36:57;18.70;99.90
33139;DHT22;19501;50.948;5.316;2022-09-13T06:39:24;18.50;99.90
33139;DHT22;19501;50.948;5.316;2022-09-13T06:41:50;18.50;99.90
33139;DHT22;19501;50.948;5.316;2022-09-13T06:44:16;18.70;99.90
33139;DHT22;19501;50.948;5.316;2022-09-13T06:46:43;18.90;99.90
33139;DHT22;19501;50.948;5.316;2022-09-13T06:49:09;19.10;99.90
33139;DHT22;19501;50.948;5.316;2022-09-13T06:51:36;19.10;99.90
33139;DHT22;19501;50.948;5.316;2022-09-13T06:54:02;19.20;99.90
33139;DHT22;19501;50.948;5.316;2022-09-13T06:56:33;19.10;99.90
33139;DHT22;19501;50.948;5.316;2022-09-13T06:59:01;19.00;99.90
33139;DHT22;19501;50.948;5.316;2022-09-13T07:01:37;19.10;99.90
33139;DHT22;19501;50.948;5.316;2022-09-13T07:04:07;19.20;99.90
33139;DHT22;19501;50.948;5.316;2022-09-13T07:06:36;19.30;99.90
33139;DHT22;19501;50.948;5.316;2022-09-13T07:09:06;19.30;99.90
33139;DHT22;19501;50.948;5.316;2022-09-13T07:11:36;19.50;99.90
33139;DHT22;19501;50.948;5.316;2022-09-13T07:14:03;19.70;99.90
33139;DHT22;19501;50.948;5.316;2022-09-13T07:16:30;19.90;99.90
33139;DHT22;19501;50.948;5.316;2022-09-13T07:18:59;20.20;99.90
33139;DHT22;19501;50.948;5.316;2022-09-13T07:21:28;20.10;99.90
33139;DHT22;19501;50.948;5.316;2022-09-13T07:23:55;20.00;99.90
33139;DHT22;19501;50.948;5.316;2022-09-13T07:26:22;19.80;99.90
33139;DHT22;19501;50.948;5.316;2022-09-13T07:28:51;19.80;99.90
33139;DHT22;19501;50.948;5.316;2022-09-13T07:31:19;19.70;99.90
33139;DHT22;19501;50.948;5.316;2022-09-13T07:33:46;19.70;99.90
33139;DHT22;19501;50.948;5.316;2022-09-13T07:36:13;19.90;99.90
33139;DHT22;19501;50.948;5.316;2022-09-13T07:38:41;19.90;99.90
33139;DHT22;19501;50.948;5.316;2022-09-13T07:41:11;20.00;99.90
33139;DHT22;19501;50.948;5.316;2022-09-13T07:43:38;20.20;99.90
33139;DHT22;19501;50.948;5.316;2022-09-13T07:46:06;20.40;99.90
33139;DHT22;19501;50.948;5.316;2022-09-13T07:48:34;20.40;99.90
33139;DHT22;19501;50.948;5.316;2022-09-13T07:51:17;20.20;99.90
33139;DHT22;19501;50.948;5.316;2022-09-13T07:53:46;20.20;99.90
33139;DHT22;19501;50.948;5.316;2022-09-13T07:56:18;20.50;99.90
33139;DHT22;19501;50.948;5.316;2022-09-13T07:58:46;20.50;99.90
33139;DHT22;19501;50.948;5.316;2022-09-13T08:01:19;20.80;99.90
33139;DHT22;19501;50.948;5.316;2022-09-13T08:03:54;20.70;99.90
33139;DHT22;19501;50.948;5.316;2022-09-13T08:06:20;20.90;99.90
33139;DHT22;19501;50.948;5.316;2022-09-13T08:08:46;21.00;99.90
33139;DHT22;19501;50.948;5.316;2022-09-13T08:13:54;21.00;99.90
33139;DHT22;19501;50.948;5.316;2022-09-13T08:16:21;21.20;99.90
33139;DHT22;19501;50.948;5.316;2022-09-13T08:18:49;21.40;99.90
33139;DHT22;19501;50.948;5.316;2022-09-13T08:21:17;21.60;99.90
33139;DHT22;19501;50.948;5.316;2022-09-13T08:23:43;21.60;99.90
33139;DHT22;19501;50.948;5.316;2022-09-13T08:26:09;21.90;99.90
33139;DHT22;19501;50.948;5.316;2022-09-13T08:28:35;21.80;99.90
33139;DHT22;19501;50.948;5.316;2022-09-13T08:31:05;21.90;99.90
33139;DHT22;19501;50.948;5.316;2022-09-13T08:33:32;22.10;99.90
33139;DHT22;19501;50.948;5.316;2022-09-13T08:35:58;22.00;99.90
33139;DHT22;19501;50.948;5.316;2022-09-13T08:38:24;22.20;99.90
33139;DHT22;19501;50.948;5.316;2022-09-13T08:40:55;22.30;99.90
33139;DHT22;19501;50.948;5.316;2022-09-13T08:46:19;22.30;99.90
33139;DHT22;19501;50.948;5.316;2022-09-13T08:48:48;22.30;99.90
33139;DHT22;19501;50.948;5.316;2022-09-13T08:54:01;22.70;99.90
33139;DHT22;19501;50.948;5.316;2022-09-13T09:07:17;22.80;99.90
33139;DHT22;19501;50.948;5.316;2022-09-13T09:10:03;22.90;99.90
33139;DHT22;19501;50.948;5.316;2022-09-13T09:12:32;23.40;99.90
33139;DHT22;19501;50.948;5.316;2022-09-13T09:15:22;23.60;99.90
33139;DHT22;19501;50.948;5.316;2022-09-13T09:18:17;23.60;99.90
33139;DHT22;19501;50.948;5.316;2022-09-13T09:20:47;23.60;99.90
33139;DHT22;19501;50.948;5.316;2022-09-13T09:23:17;23.30;99.90
33139;DHT22;19501;50.948;5.316;2022-09-13T09:25:44;23.40;99.90
33139;DHT22;19501;50.948;5.316;2022-09-13T09:28:15;23.50;99.90
33139;DHT22;19501;50.948;5.316;2022-09-13T09:31:48;23.50;99.90
33139;DHT22;19501;50.948;5.316;2022-09-13T09:36:36;23.70;99.90
33139;DHT22;19501;50.948;5.316;2022-09-13T09:39:04;24.10;99.90
33139;DHT22;19501;50.948;5.316;2022-09-13T09:41:32;24.10;99.90
33139;DHT22;19501;50.948;5.316;2022-09-13T09:46:31;24.10;99.90
33139;DHT22;19501;50.948;5.316;2022-09-13T09:52:03;24.30;99.90
33139;DHT22;19501;50.948;5.316;2022-09-13T09:54:32;24.30;99.90
33139;DHT22;19501;50.948;5.316;2022-09-13T09:56:59;24.50;99.90
33139;DHT22;19501;50.948;5.316;2022-09-13T09:59:31;24.60;99.90
33139;DHT22;19501;50.948;5.316;2022-09-13T10:02:10;24.90;99.90
33139;DHT22;19501;50.948;5.316;2022-09-13T10:04:38;25.20;99.90
33139;DHT22;19501;50.948;5.316;2022-09-13T10:07:34;25.50;99.90
33139;DHT22;19501;50.948;5.316;2022-09-13T10:12:54;26.10;99.90
33139;DHT22;19501;50.948;5.316;2022-09-13T10:15:27;26.00;99.90
33139;DHT22;19501;50.948;5.316;2022-09-13T10:20:28;26.40;99.90
33139;DHT22;19501;50.948;5.316;2022-09-13T10:23:20;26.50;99.90
33139;DHT22;19501;50.948;5.316;2022-09-13T10:31:12;26.40;99.90
33139;DHT22;19501;50.948;5.316;2022-09-13T10:33:41;26.20;99.90
33139;DHT22;19501;50.948;5.316;2022-09-13T10:36:20;26.10;99.90
33139;DHT22;19501;50.948;5.316;2022-09-13T10:39:16;25.80;99.90
33139;DHT22;19501;50.948;5.316;2022-09-13T10:41:49;25.70;99.90
33139;DHT22;19501;50.948;5.316;2022-09-13T10:44:38;25.90;99.90
33139;DHT22;19501;50.948;5.316;2022-09-13T10:47:11;25.90;99.90
33139;DHT22;19501;50.948;5.316;2022-09-13T10:55:01;27.10;99.90
33139;DHT22;19501;50.948;5.316;2022-09-13T10:57:38;26.80;99.90
33139;DHT22;19501;50.948;5.316;2022-09-13T11:00:06;26.90;99.90
33139;DHT22;19501;50.948;5.316;2022-09-13T11:05:48;26.60;99.90
33139;DHT22;19501;50.948;5.316;2022-09-13T11:10:51;26.50;99.90
33139;DHT22;19501;50.948;5.316;2022-09-13T11:16:24;26.60;99.90
33139;DHT22;19501;50.948;5.316;2022-09-13T11:27:31;26.80;99.90
33139;DHT22;19501;50.948;5.316;2022-09-13T11:30:17;27.40;99.90
33139;DHT22;19501;50.948;5.316;2022-09-13T11:33:12;27.10;99.90
33139;DHT22;19501;50.948;5.316;2022-09-13T11:36:49;27.50;99.90
33139;DHT22;19501;50.948;5.316;2022-09-13T11:49:36;27.40;99.90
33139;DHT22;19501;50.948;5.316;2022-09-13T11:57:45;28.70;99.90
33139;DHT22;19501;50.948;5.316;2022-09-13T12:05:28;29.30;98.40
33139;DHT22;19501;50.948;5.316;2022-09-13T12:08:58;29.70;98.00
33139;DHT22;19501;50.948;5.316;2022-09-13T12:11:36;30.20;97.00
33139;DHT22;19501;50.948;5.316;2022-09-13T12:14:06;30.50;96.50
33139;DHT22;19501;50.948;5.316;2022-09-13T12:16:42;31.80;96.20
33139;DHT22;19501;50.948;5.316;2022-09-13T12:19:39;33.30;94.10
33139;DHT22;19501;50.948;5.316;2022-09-13T12:22:06;34.00;93.50
33139;DHT22;19501;50.948;5.316;2022-09-13T12:25:02;34.20;91.90
33139;DHT22;19501;50.948;5.316;2022-09-13T12:27:58;33.60;92.50
33139;DHT22;19501;50.948;5.316;2022-09-13T12:30:38;32.20;92.10
33139;DHT22;19501;50.948;5.316;2022-09-13T12:33:07;31.40;92.30
33139;DHT22;19501;50.948;5.316;2022-09-13T12:35:50;30.30;93.70
33139;DHT22;19501;50.948;5.316;2022-09-13T12:41:19;28.70;95.20
33139;DHT22;19501;50.948;5.316;2022-09-13T12:58:40;28.00;96.80
33139;DHT22;19501;50.948;5.316;2022-09-13T13:01:14;27.30;97.20
33139;DHT22;19501;50.948;5.316;2022-09-13T13:03:57;27.70;98.10
33139;DHT22;19501;50.948;5.316;2022-09-13T13:06:34;28.20;98.00
33139;DHT22;19501;50.948;5.316;2022-09-13T13:09:06;28.50;97.70
33139;DHT22;19501;50.948;5.316;2022-09-13T13:11:45;28.60;96.90
33139;DHT22;19501;50.948;5.316;2022-09-13T13:14:45;28.70;96.90
33139;DHT22;19501;50.948;5.316;2022-09-13T13:17:46;28.00;96.50
33139;DHT22;19501;50.948;5.316;2022-09-13T13:26:45;27.30;98.00
33139;DHT22;19501;50.948;5.316;2022-09-13T13:29:26;27.40;98.40
33139;DHT22;19501;50.948;5.316;2022-09-13T13:34:45;27.40;99.20
33139;DHT22;19501;50.948;5.316;2022-09-13T13:39:48;27.40;98.30
33139;DHT22;19501;50.948;5.316;2022-09-13T13:42:34;27.60;98.30
33139;DHT22;19501;50.948;5.316;2022-09-13T13:45:25;27.50;98.70
33139;DHT22;19501;50.948;5.316;2022-09-13T13:48:06;27.50;99.80
33139;DHT22;19501;50.948;5.316;2022-09-13T13:50:32;27.30;98.30
33139;DHT22;19501;50.948;5.316;2022-09-13T13:53:17;27.10;98.90
33139;DHT22;19501;50.948;5.316;2022-09-13T13:55:46;27.20;98.20
33139;DHT22;19501;50.948;5.316;2022-09-13T13:58:26;27.00;99.00
33139;DHT22;19501;50.948;5.316;2022-09-13T14:00:54;27.00;98.60
33139;DHT22;19501;50.948;5.316;2022-09-13T14:03:29;26.80;99.20
33139;DHT22;19501;50.948;5.316;2022-09-13T14:06:12;26.60;99.90
33139;DHT22;19501;50.948;5.316;2022-09-13T14:19:59;26.20;99.90
33139;DHT22;19501;50.948;5.316;2022-09-13T14:22:28;25.60;99.90
33139;DHT22;19501;50.948;5.316;2022-09-13T14:24:57;25.20;99.90
33139;DHT22;19501;50.948;5.316;2022-09-13T14:27:29;25.10;99.90
33139;DHT22;19501;50.948;5.316;2022-09-13T14:30:01;25.00;99.90
33139;DHT22;19501;50.948;5.316;2022-09-13T14:32:30;25.00;99.90
33139;DHT22;19501;50.948;5.316;2022-09-13T14:34:58;25.10;99.90
33139;DHT22;19501;50.948;5.316;2022-09-13T14:37:30;25.10;99.90
33139;DHT22;19501;50.948;5.316;2022-09-13T14:42:41;25.50;99.90
33139;DHT22;19501;50.948;5.316;2022-09-13T14:45:16;25.70;99.90
33139;DHT22;19501;50.948;5.316;2022-09-13T14:47:56;25.60;99.90
33139;DHT22;19501;50.948;5.316;2022-09-13T14:50:32;25.60;99.90
33139;DHT22;19501;50.948;5.316;2022-09-13T14:53:02;25.50;99.90
33139;DHT22;19501;50.948;5.316;2022-09-13T14:55:37;25.40;99.90
33139;DHT22;19501;50.948;5.316;2022-09-13T14:58:16;25.40;99.90
33139;DHT22;19501;50.948;5.316;2022-09-13T15:01:05;24.90;99.90
33139;DHT22;19501;50.948;5.316;2022-09-13T15:03:33;24.60;99.90
33139;DHT22;19501;50.948;5.316;2022-09-13T15:06:00;24.10;99.90
33139;DHT22;19501;50.948;5.316;2022-09-13T15:11:04;24.00;99.90
33139;DHT22;19501;50.948;5.316;2022-09-13T15:13:32;24.00;99.90
33139;DHT22;19501;50.948;5.316;2022-09-13T15:15:58;24.10;99.90
33139;DHT22;19501;50.948;5.316;2022-09-13T15:18:28;24.10;99.90
33139;DHT22;19501;50.948;5.316;2022-09-13T15:21:03;23.80;99.90
33139;DHT22;19501;50.948;5.316;2022-09-13T15:23:35;23.40;99.90
33139;DHT22;19501;50.948;5.316;2022-09-13T15:28:52;23.20;99.90
33139;DHT22;19501;50.948;5.316;2022-09-13T15:31:27;23.10;99.90
33139;DHT22;19501;50.948;5.316;2022-09-13T15:37:00;23.10;99.90
33139;DHT22;19501;50.948;5.316;2022-09-13T15:39:26;23.00;99.90
33139;DHT22;19501;50.948;5.316;2022-09-13T15:41:57;23.20;99.90
33139;DHT22;19501;50.948;5.316;2022-09-13T15:44:26;23.10;99.90
33139;DHT22;19501;50.948;5.316;2022-09-13T15:46:55;23.00;99.90
33139;DHT22;19501;50.948;5.316;2022-09-13T15:49:24;23.10;99.90
33139;DHT22;19501;50.948;5.316;2022-09-13T15:51:56;23.00;99.90
33139;DHT22;19501;50.948;5.316;2022-09-13T15:54:25;22.80;99.90
33139;DHT22;19501;50.948;5.316;2022-09-13T15:56:51;22.80;99.90
33139;DHT22;19501;50.948;5.316;2022-09-13T15:59:21;22.70;99.90
33139;DHT22;19501;50.948;5.316;2022-09-13T16:01:48;22.80;99.90
33139;DHT22;19501;50.948;5.316;2022-09-13T16:04:14;22.90;99.90
33139;DHT22;19501;50.948;5.316;2022-09-13T16:06:40;23.10;99.90
33139;DHT22;19501;50.948;5.316;2022-09-13T16:09:24;23.30;99.90
33139;DHT22;19501;50.948;5.316;2022-09-13T16:11:52;23.40;99.90
33139;DHT22;19501;50.948;5.316;2022-09-13T16:14:20;23.50;99.90
33139;DHT22;19501;50.948;5.316;2022-09-13T16:16:46;23.40;99.90
33139;DHT22;19501;50.948;5.316;2022-09-13T16:19:20;23.50;99.90
33139;DHT22;19501;50.948;5.316;2022-09-13T16:21:47;23.10;99.90
33139;DHT22;19501;50.948;5.316;2022-09-13T16:24:13;22.90;99.90
33139;DHT22;19501;50.948;5.316;2022-09-13T16:26:39;22.50;99.90
33139;DHT22;19501;50.948;5.316;2022-09-13T16:29:05;22.10;99.90
33139;DHT22;19501;50.948;5.316;2022-09-13T16:31:33;22.00;99.90
33139;DHT22;19501;50.948;5.316;2022-09-13T16:33:59;21.80;99.90
33139;DHT22;19501;50.948;5.316;2022-09-13T16:36:25;21.80;99.90
33139;DHT22;19501;50.948;5.316;2022-09-13T16:38:54;22.00;99.90
33139;DHT22;19501;50.948;5.316;2022-09-13T16:41:20;22.10;99.90
33139;DHT22;19501;50.948;5.316;2022-09-13T16:43:45;22.30;99.90
33139;DHT22;19501;50.948;5.316;2022-09-13T16:46:11;22.30;99.90
33139;DHT22;19501;50.948;5.316;2022-09-13T16:48:38;22.40;99.90
33139;DHT22;19501;50.948;5.316;2022-09-13T16:51:11;22.20;99.90
33139;DHT22;19501;50.948;5.316;2022-09-13T16:53:40;22.20;99.90
33139;DHT22;19501;50.948;5.316;2022-09-13T16:56:08;22.10;99.90
33139;DHT22;19501;50.948;5.316;2022-09-13T16:58:36;22.10;99.90
33139;DHT22;19501;50.948;5.316;2022-09-13T17:01:06;22.00;99.90
33139;DHT22;19501;50.948;5.316;2022-09-13T17:03:35;22.00;99.90
33139;DHT22;19501;50.948;5.316;2022-09-13T17:06:03;21.90;99.90
33139;DHT22;19501;50.948;5.316;2022-09-13T17:08:29;21.90;99.90
33139;DHT22;19501;50.948;5.316;2022-09-13T17:10:55;21.80;99.90
33139;DHT22;19501;50.948;5.316;2022-09-13T17:13:21;21.70;99.90
33139;DHT22;19501;50.948;5.316;2022-09-13T17:15:47;21.40;99.90
33139;DHT22;19501;50.948;5.316;2022-09-13T17:18:13;21.20;99.90
33139;DHT22;19501;50.948;5.316;2022-09-13T17:20:47;20.80;99.90
33139;DHT22;19501;50.948;5.316;2022-09-13T17:23:13;20.50;99.90
33139;DHT22;19501;50.948;5.316;2022-09-13T17:25:41;20.20;99.90
33139;DHT22;19501;50.948;5.316;2022-09-13T17:28:10;20.10;99.90
33139;DHT22;19501;50.948;5.316;2022-09-13T17:30:36;20.00;99.90
33139;DHT22;19501;50.948;5.316;2022-09-13T17:33:02;19.90;99.90
33139;DHT22;19501;50.948;5.316;2022-09-13T17:35:30;19.80;99.90
33139;DHT22;19501;50.948;5.316;2022-09-13T17:37:56;19.70;99.90
33139;DHT22;19501;50.948;5.316;2022-09-13T17:40:21;19.70;99.90
33139;DHT22;19501;50.948;5.316;2022-09-13T17:42:47;19.60;99.90
33139;DHT22;19501;50.948;5.316;2022-09-13T17:45:14;19.70;99.90
33139;DHT22;19501;50.948;5.316;2022-09-13T17:47:40;19.80;99.90
33139;DHT22;19501;50.948;5.316;2022-09-13T17:50:06;19.90;99.90
33139;DHT22;19501;50.948;5.316;2022-09-13T17:52:33;19.90;99.90
33139;DHT22;19501;50.948;5.316;2022-09-13T17:54:59;19.90;99.90
33139;DHT22;19501;50.948;5.316;2022-09-13T17:57:26;19.90;99.90
33139;DHT22;19501;50.948;5.316;2022-09-13T17:59:52;20.00;99.90
33139;DHT22;19501;50.948;5.316;2022-09-13T18:02:19;19.90;99.90
33139;DHT22;19501;50.948;5.316;2022-09-13T18:04:47;19.80;99.90
33139;DHT22;19501;50.948;5.316;2022-09-13T18:07:14;19.80;99.90
33139;DHT22;19501;50.948;5.316;2022-09-13T18:09:40;19.80;99.90
33139;DHT22;19501;50.948;5.316;2022-09-13T18:12:06;19.60;99.90
33139;DHT22;19501;50.948;5.316;2022-09-13T18:14:32;19.70;99.90
33139;DHT22;19501;50.948;5.316;2022-09-13T18:16:58;19.70;99.90
33139;DHT22;19501;50.948;5.316;2022-09-13T18:19:24;19.80;99.90
33139;DHT22;19501;50.948;5.316;2022-09-13T18:21:50;20.10;99.90
33139;DHT22;19501;50.948;5.316;2022-09-13T18:24:16;20.20;99.90
33139;DHT22;19501;50.948;5.316;2022-09-13T18:26:42;20.20;99.90
33139;DHT22;19501;50.948;5.316;2022-09-13T18:29:12;20.20;99.90
33139;DHT22;19501;50.948;5.316;2022-09-13T18:31:39;20.30;99.90
33139;DHT22;19501;50.948;5.316;2022-09-13T18:34:10;20.30;99.90
33139;DHT22;19501;50.948;5.316;2022-09-13T18:36:37;20.30;99.90
33139;DHT22;19501;50.948;5.316;2022-09-13T18:39:11;20.20;99.90
33139;DHT22;19501;50.948;5.316;2022-09-13T18:41:39;20.30;99.90
33139;DHT22;19501;50.948;5.316;2022-09-13T18:44:05;20.40;99.90
33139;DHT22;19501;50.948;5.316;2022-09-13T18:46:32;20.40;99.90
33139;DHT22;19501;50.948;5.316;2022-09-13T18:48:59;20.40;99.90
33139;DHT22;19501;50.948;5.316;2022-09-13T18:51:29;20.40;99.90
33139;DHT22;19501;50.948;5.316;2022-09-13T18:53:56;20.20;99.90
33139;DHT22;19501;50.948;5.316;2022-09-13T18:56:23;20.30;99.90
33139;DHT22;19501;50.948;5.316;2022-09-13T18:58:49;20.40;99.90
33139;DHT22;19501;50.948;5.316;2022-09-13T19:01:23;20.40;99.90
33139;DHT22;19501;50.948;5.316;2022-09-13T19:03:55;20.10;99.90
33139;DHT22;19501;50.948;5.316;2022-09-13T19:06:22;20.10;99.90
33139;DHT22;19501;50.948;5.316;2022-09-13T19:08:49;20.20;99.90